Terminal Aerodrome Forecast
Issued by NWS

Home | Current Version | Previous Version | Graphics & Text | Print | Product List | Glossary On
Versions: 1 2 3 4 5 6 7 8 9 10 11 12 13 14 15
000
FTUS43 KMPX 100500
TAFRWF
TAF
KRWF 100520Z 1006/1106 VRB02KT P6SM FEW080
     FM100900 17004KT P6SM SCT080
     FM101500 17012G18KT P6SM SCT040 BKN080
     FM102200 17013KT P6SM VCSH BKN045 OVC080 PROB30 1103/1106 5SM
      TSRA OVC035CB=

USA.gov is the U.S. government's official web portal to all federal, state and local government web resources and services.